Time;durP1;ratioP1;P1;durP2;ratioP2;P2;SDS_P1;SDS_P2;PMS_P1;PMS_P2;Temp;Humidity;BMP_temperature;BMP_pressure;BME280_temperature;BME280_humidity;BME280_pressure;Samples;Min_cycle;Max_cycle;Signal;HPM_P1;HPM_P2
2023/02/08 10:23:04;;;;;;;5.07;2.00;;;4.50;99.90;;;;;;2161349;23;20272;-69
2023/02/08 10:25:46;;;;;;;4.47;2.33;;;4.60;99.90;;;;;;4934855;29;20570;-68
2023/02/08 10:28:39;;;;;;;4.43;1.93;;;4.80;99.90;;;;;;4948258;29;20678;-69
2023/02/08 10:31:12;;;;;;;4.70;2.40;;;4.90;99.90;;;;;;4947490;29;20236;-69
2023/02/08 10:33:50;;;;;;;3.73;1.90;;;5.20;99.90;;;;;;4941527;29;20208;-70
2023/02/08 10:36:20;;;;;;;4.33;2.20;;;5.00;98.80;;;;;;4948799;29;20228;-69
2023/02/08 10:38:52;;;;;;;6.00;2.13;;;5.00;99.40;;;;;;4955929;28;20214;-68
2023/02/08 10:41:23;;;;;;;4.00;2.20;;;5.00;98.20;;;;;;4956105;28;20245;-68
2023/02/08 10:43:53;;;;;;;2.93;1.63;;;5.00;98.00;;;;;;4935759;29;20537;-69
2023/02/08 10:46:25;;;;;;;4.10;2.43;;;5.10;98.00;;;;;;4939305;29;20204;-68
2023/02/08 10:49:07;;;;;;;3.47;2.00;;;5.10;99.50;;;;;;4935276;29;20209;-69
2023/02/08 10:51:34;;;;;;;3.77;1.77;;;5.30;99.90;;;;;;4935628;29;20232;-71
2023/02/08 10:54:02;;;;;;;5.30;1.80;;;5.30;99.90;;;;;;4935624;29;20213;-68
2023/02/08 10:56:44;;;;;;;4.17;2.17;;;5.30;99.30;;;;;;4936296;29;20205;-69
2023/02/08 10:59:16;;;;;;;3.47;1.80;;;5.40;98.70;;;;;;4936697;29;20216;-68
2023/02/08 11:01:45;;;;;;;4.80;2.13;;;5.50;97.70;;;;;;4936583;29;20311;-70
2023/02/08 11:04:13;;;;;;;2.30;1.30;;;5.60;97.30;;;;;;4936647;29;20232;-69
2023/02/08 11:06:41;;;;;;;2.37;1.27;;;5.60;97.20;;;;;;4936557;29;20216;-68
2023/02/08 11:09:24;;;;;;;3.53;1.60;;;5.70;96.40;;;;;;4936306;29;20209;-69
2023/02/08 11:11:52;;;;;;;2.70;1.57;;;5.70;97.00;;;;;;4936868;29;20217;-69
2023/02/08 11:14:23;;;;;;;4.47;1.83;;;5.80;96.90;;;;;;4936807;29;20209;-69
2023/02/08 11:16:51;;;;;;;3.93;2.20;;;5.90;97.10;;;;;;4936707;29;20209;-69
2023/02/08 11:19:27;;;;;;;3.63;1.70;;;5.90;97.40;;;;;;4936594;29;20232;-68
2023/02/08 11:21:55;;;;;;;3.37;1.80;;;6.00;96.80;;;;;;4936647;29;20703;-69
2023/02/08 11:24:34;;;;;;;5.73;1.80;;;6.10;96.30;;;;;;4936013;29;20680;-69
2023/02/08 11:27:02;;;;;;;5.13;2.10;;;6.10;95.80;;;;;;4936499;29;20616;-69
2023/02/08 11:29:30;;;;;;;5.03;1.83;;;6.20;97.40;;;;;;4936358;29;20256;-69
2023/02/08 11:32:00;;;;;;;4.33;2.17;;;6.10;96.60;;;;;;4936485;29;20220;-72
2023/02/08 11:34:29;;;;;;;6.80;2.30;;;6.10;95.80;;;;;;4936146;29;20304;-72
2023/02/08 11:36:57;;;;;;;4.00;1.90;;;6.10;95.60;;;;;;4936036;29;20715;-69
2023/02/08 11:39:26;;;;;;;2.90;1.57;;;6.00;95.00;;;;;;4936164;29;20216;-72
2023/02/08 11:41:59;;;;;;;3.13;1.37;;;6.00;92.50;;;;;;4935937;29;20714;-71
2023/02/08 11:44:29;;;;;;;4.57;1.70;;;6.00;91.70;;;;;;4935970;29;20205;-70
2023/02/08 11:46:59;;;;;;;3.97;1.33;;;6.00;91.80;;;;;;4936308;29;20208;-71
2023/02/08 11:49:31;;;;;;;2.80;1.50;;;6.10;90.80;;;;;;4935917;29;20209;-72
2023/02/08 11:51:58;;;;;;;2.20;1.10;;;6.00;90.00;;;;;;4936127;29;20560;-71
2023/02/08 11:54:39;;;;;;;3.70;1.53;;;6.00;90.40;;;;;;4935908;29;20213;-72
2023/02/08 11:57:14;;;;;;;4.37;1.50;;;6.10;88.20;;;;;;4936157;29;20271;-69
2023/02/08 11:59:41;;;;;;;3.93;1.83;;;6.20;88.30;;;;;;4935750;29;20706;-69
2023/02/08 12:02:34;;;;;;;4.53;1.57;;;6.20;86.80;;;;;;4935982;29;20240;-72
2023/02/08 12:05:02;;;;;;;3.23;1.20;;;6.10;87.00;;;;;;4935881;29;20233;-69
2023/02/08 12:07:46;;;;;;;1.60;1.10;;;6.20;86.80;;;;;;4935954;29;20209;-71
2023/02/08 12:10:53;;;;;;;2.07;1.17;;;6.20;87.10;;;;;;4935639;29;20699;-72
2023/02/08 12:13:46;;;;;;;3.73;1.60;;;6.30;86.10;;;;;;4935612;29;20372;-72
2023/02/08 12:16:32;;;;;;;2.70;1.40;;;6.30;89.20;;;;;;4935868;29;20690;-70
2023/02/08 12:19:26;;;;;;;6.60;1.30;;;6.40;90.30;;;;;;4935805;29;20575;-72
2023/02/08 12:22:01;;;;;;;2.13;1.37;;;6.30;90.20;;;;;;4935949;29;20232;-72
2023/02/08 12:24:35;;;;;;;3.00;1.20;;;6.40;90.40;;;;;;4935679;29;20216;-70
2023/02/08 12:27:13;;;;;;;3.87;1.53;;;6.40;90.20;;;;;;4935548;29;20224;-72
2023/02/08 12:29:53;;;;;;;2.43;1.50;;;6.40;91.10;;;;;;4935383;29;20221;-71
2023/02/08 12:32:37;;;;;;;2.60;1.50;;;6.40;91.30;;;;;;4935695;29;20204;-72
2023/02/08 12:35:21;;;;;;;2.60;1.43;;;6.50;91.30;;;;;;4935668;29;20208;-72
2023/02/08 12:40:49;;;;;;;3.03;1.50;;;6.70;92.40;;;;;;4935592;29;20319;-71
2023/02/08 12:43:28;;;;;;;3.63;1.70;;;6.80;92.90;;;;;;4935529;29;20243;-71
2023/02/08 12:46:27;;;;;;;2.03;1.20;;;6.80;92.80;;;;;;4935081;29;20214;-73
2023/02/08 12:49:16;;;;;;;5.60;1.93;;;6.70;92.90;;;;;;4930716;29;20557;-71
2023/02/08 12:51:54;;;;;;;2.47;1.43;;;6.70;92.80;;;;;;4935565;29;20228;-72
2023/02/08 12:54:29;;;;;;;2.77;1.70;;;6.60;92.30;;;;;;4935114;29;20209;-73
2023/02/08 12:56:58;;;;;;;2.87;1.53;;;6.80;92.70;;;;;;4938596;29;20212;-72
2023/02/08 12:59:30;;;;;;;3.37;1.60;;;6.80;92.50;;;;;;4938904;29;20249;-73
2023/02/08 13:02:03;;;;;;;3.20;1.80;;;6.60;92.50;;;;;;4938824;29;20743;-71
2023/02/08 13:04:37;;;;;;;4.80;2.00;;;6.70;92.90;;;;;;4938944;29;20209;-70
2023/02/08 13:07:11;;;;;;;4.07;1.63;;;6.80;92.70;;;;;;4938825;29;20209;-69
2023/02/08 13:09:45;;;;;;;4.33;1.70;;;6.80;92.70;;;;;;4938640;29;20671;-71
2023/02/08 13:12:15;;;;;;;6.60;2.00;;;6.90;93.40;;;;;;4939024;29;20208;-71
2023/02/08 13:14:47;;;;;;;5.10;2.27;;;6.90;93.60;;;;;;4938844;29;20211;-70
2023/02/08 13:17:19;;;;;;;4.50;1.90;;;7.00;93.70;;;;;;4938826;29;20213;-71
2023/02/08 13:19:54;;;;;;;2.90;1.57;;;6.90;94.40;;;;;;4938737;29;20229;-72
2023/02/08 13:22:23;;;;;;;3.90;1.70;;;7.10;94.10;;;;;;4939096;29;20287;-71
2023/02/08 13:24:52;;;;;;;3.50;1.90;;;7.00;93.20;;;;;;4938735;29;20208;-71
2023/02/08 13:27:21;;;;;;;2.00;1.40;;;7.00;94.00;;;;;;4938066;29;20216;-69
2023/02/08 13:29:51;;;;;;;9.30;2.10;;;7.10;94.30;;;;;;4938512;29;20243;-72
2023/02/08 13:32:28;;;;;;;2.80;1.53;;;7.10;94.00;;;;;;4938328;29;20212;-70
2023/02/08 13:35:00;;;;;;;2.53;1.57;;;7.10;94.30;;;;;;4938889;29;20212;-72
2023/02/08 13:37:30;;;;;;;3.70;1.90;;;7.00;93.90;;;;;;4938128;29;20208;-72
2023/02/08 13:40:04;;;;;;;3.50;1.90;;;7.00;93.80;;;;;;4938104;29;20233;-71
2023/02/08 13:42:36;;;;;;;3.10;1.47;;;6.90;93.70;;;;;;4938031;29;20232;-69
2023/02/08 13:45:05;;;;;;;3.77;2.03;;;7.00;93.70;;;;;;4938109;29;20212;-72
2023/02/08 13:47:42;;;;;;;5.77;1.70;;;7.10;94.40;;;;;;4938081;29;20220;-71
2023/02/08 13:50:40;;;;;;;4.90;2.00;;;7.20;93.90;;;;;;4938254;29;20228;-70
2023/02/08 13:53:07;;;;;;;4.47;2.17;;;7.10;94.30;;;;;;4937948;29;20571;-72
2023/02/08 13:56:00;;;;;;;2.97;1.80;;;7.10;94.20;;;;;;4938347;29;20233;-72
2023/02/08 13:58:59;;;;;;;3.80;1.83;;;7.00;93.90;;;;;;4938245;29;20303;-73
2023/02/08 14:01:27;;;;;;;5.33;2.00;;;7.20;94.40;;;;;;4937945;29;20324;-71
2023/02/08 14:04:31;;;;;;;5.27;2.03;;;7.20;94.60;;;;;;4937983;29;20241;-69
2023/02/08 14:07:05;;;;;;;3.87;2.00;;;7.10;94.10;;;;;;4928088;29;20208;-72
2023/02/08 14:09:44;;;;;;;2.80;1.70;;;7.10;94.80;;;;;;4937911;29;20571;-72
2023/02/08 14:12:20;;;;;;;3.87;1.90;;;7.20;94.50;;;;;;4937650;29;20582;-70
2023/02/08 14:15:05;;;;;;;6.80;1.80;;;7.10;95.10;;;;;;4938161;29;20209;-70
2023/02/08 14:17:33;;;;;;;3.17;1.77;;;7.10;94.40;;;;;;4937765;29;20244;-70
2023/02/08 14:20:02;;;;;;;3.03;1.53;;;7.20;95.00;;;;;;4937545;29;20240;-71
2023/02/08 14:22:36;;;;;;;3.90;1.50;;;7.10;94.50;;;;;;4937338;29;20241;-71
2023/02/08 14:25:05;;;;;;;3.60;1.80;;;7.10;94.90;;;;;;4937543;29;20227;-71
2023/02/08 14:27:38;;;;;;;3.17;1.67;;;7.00;94.90;;;;;;4937337;29;20564;-71
2023/02/08 14:30:08;;;;;;;3.57;1.50;;;7.00;94.90;;;;;;4937132;29;20233;-72
2023/02/08 14:32:40;;;;;;;3.23;1.80;;;7.00;94.70;;;;;;4937404;29;20213;-71
2023/02/08 14:35:09;;;;;;;5.47;1.93;;;7.00;95.10;;;;;;4937381;29;20537;-71
2023/02/08 14:37:38;;;;;;;3.60;1.70;;;7.00;95.00;;;;;;4937189;29;20687;-73
2023/02/08 14:40:31;;;;;;;2.80;1.20;;;7.10;95.10;;;;;;4937036;29;20583;-69
2023/02/08 14:42:59;;;;;;;1.73;1.37;;;7.00;95.20;;;;;;4937238;29;20240;-69
2023/02/08 14:45:28;;;;;;;3.40;1.53;;;7.00;95.10;;;;;;4937231;29;20209;-69
2023/02/08 14:47:58;;;;;;;5.33;1.70;;;6.90;94.40;;;;;;4937231;29;20213;-69
2023/02/08 14:50:28;;;;;;;3.57;1.70;;;6.80;95.20;;;;;;4937054;29;20239;-72
2023/02/08 14:53:03;;;;;;;3.00;1.47;;;6.90;94.50;;;;;;4936984;29;20264;-69
2023/02/08 14:55:33;;;;;;;3.50;1.60;;;6.80;94.10;;;;;;4936870;29;20209;-72
2023/02/08 14:58:02;;;;;;;4.47;1.80;;;6.80;93.80;;;;;;4936806;29;20223;-72
2023/02/08 15:00:34;;;;;;;3.57;1.50;;;6.80;93.60;;;;;;4936774;29;20286;-72
2023/02/08 15:03:01;;;;;;;3.57;1.80;;;6.80;93.90;;;;;;4937049;29;20730;-72
2023/02/08 15:05:31;;;;;;;2.80;1.90;;;6.90;93.70;;;;;;4936900;29;20215;-71
2023/02/08 15:08:03;;;;;;;3.00;1.83;;;6.90;93.70;;;;;;4936913;29;20209;-72
2023/02/08 15:10:31;;;;;;;5.13;2.23;;;6.80;93.40;;;;;;4936579;29;20233;-72
2023/02/08 15:13:02;;;;;;;3.07;1.77;;;6.90;94.10;;;;;;4936986;29;20209;-71
2023/02/08 15:15:33;;;;;;;5.63;1.40;;;6.80;94.10;;;;;;4936811;29;20213;-71
2023/02/08 15:18:01;;;;;;;4.37;1.57;;;6.80;93.80;;;;;;4935683;29;20208;-70
2023/02/08 15:20:30;;;;;;;5.93;2.47;;;6.90;94.40;;;;;;4935846;29;20596;-71
2023/02/08 15:23:00;;;;;;;3.73;1.53;;;6.90;93.80;;;;;;4935744;29;20240;-70
2023/02/08 15:25:29;;;;;;;3.57;1.70;;;6.90;94.40;;;;;;4936031;29;20209;-71
2023/02/08 15:27:58;;;;;;;3.47;1.70;;;6.90;94.10;;;;;;4936035;29;20212;-70
2023/02/08 15:30:30;;;;;;;4.03;1.83;;;6.80;93.80;;;;;;4935948;29;20237;-71
2023/02/08 15:32:57;;;;;;;3.87;1.40;;;6.90;94.70;;;;;;4936535;29;20243;-72
2023/02/08 15:35:26;;;;;;;5.53;1.77;;;6.80;94.50;;;;;;4935382;29;20208;-69
2023/02/08 15:37:53;;;;;;;3.37;1.60;;;6.90;95.00;;;;;;4935484;29;20248;-72
2023/02/08 15:40:28;;;;;;;6.87;2.23;;;6.80;94.70;;;;;;4936163;29;20233;-70
2023/02/08 15:43:02;;;;;;;7.33;2.37;;;6.70;94.50;;;;;;4936311;29;20236;-72
2023/02/08 15:45:29;;;;;;;3.97;2.00;;;6.70;95.10;;;;;;4936186;29;20580;-72
2023/02/08 15:47:57;;;;;;;4.23;2.07;;;6.70;94.70;;;;;;4936201;29;20744;-71
2023/02/08 15:50:25;;;;;;;3.37;2.00;;;6.60;94.70;;;;;;4936226;29;20232;-72
2023/02/08 15:52:57;;;;;;;2.50;1.57;;;6.60;94.70;;;;;;4936042;29;20212;-71
2023/02/08 15:55:28;;;;;;;2.97;1.40;;;6.60;94.00;;;;;;4935580;29;20205;-71
2023/02/08 15:57:58;;;;;;;3.07;1.50;;;6.60;93.80;;;;;;4936078;29;20209;-71
2023/02/08 16:00:28;;;;;;;4.30;1.80;;;6.60;94.00;;;;;;4935783;29;20225;-71
2023/02/08 16:02:57;;;;;;;3.50;1.30;;;6.60;94.20;;;;;;4935661;29;20232;-72
2023/02/08 16:05:26;;;;;;;4.30;1.30;;;6.50;94.30;;;;;;4936148;29;20208;-69
2023/02/08 16:07:54;;;;;;;6.27;1.77;;;6.40;95.00;;;;;;4935968;29;20213;-72
2023/02/08 16:10:32;;;;;;;5.23;2.20;;;6.30;95.00;;;;;;4935412;29;20311;-71
2023/02/08 16:13:03;;;;;;;4.90;1.70;;;6.30;95.00;;;;;;4935543;29;20675;-70
2023/02/08 16:15:44;;;;;;;2.50;1.33;;;6.20;94.60;;;;;;4933848;29;20215;-72
2023/02/08 16:18:36;;;;;;;3.07;1.47;;;6.10;94.80;;;;;;4936543;29;20205;-73
2023/02/08 16:21:04;;;;;;;4.30;1.97;;;6.10;95.00;;;;;;4958130;23;20239;-71
2023/02/08 16:23:32;;;;;;;4.37;1.77;;;6.00;94.50;;;;;;4954054;29;20714;-70
2023/02/08 16:26:12;;;;;;;5.80;2.13;;;6.00;94.80;;;;;;4954442;28;20308;-71
2023/02/08 16:28:39;;;;;;;8.50;2.30;;;6.00;95.20;;;;;;4954776;29;20211;-70
2023/02/08 16:31:07;;;;;;;4.70;2.37;;;5.80;95.40;;;;;;4943206;28;20696;-70
2023/02/08 16:33:36;;;;;;;5.30;1.83;;;5.80;95.60;;;;;;4939404;29;20635;-73
2023/02/08 16:36:03;;;;;;;2.87;1.67;;;5.80;96.10;;;;;;4939371;29;20296;-70
2023/02/08 16:38:32;;;;;;;4.37;1.77;;;5.80;96.00;;;;;;4939503;29;20599;-70
2023/02/08 16:41:10;;;;;;;4.03;1.27;;;5.70;96.00;;;;;;4939136;29;20277;-71
2023/02/08 16:43:42;;;;;;;3.70;1.60;;;5.60;96.70;;;;;;4938948;29;20295;-71
2023/02/08 16:46:23;;;;;;;2.60;1.67;;;5.60;96.30;;;;;;4938687;29;20580;-72
2023/02/08 16:48:52;;;;;;;3.27;2.00;;;5.50;98.50;;;;;;4938816;29;20227;-71
2023/02/08 16:51:21;;;;;;;5.43;2.37;;;5.50;98.20;;;;;;4939004;29;20239;-72
2023/02/08 16:53:49;;;;;;;7.17;2.70;;;5.50;98.90;;;;;;4939278;29;20213;-72
2023/02/08 16:56:16;;;;;;;3.97;1.60;;;5.50;98.70;;;;;;4938895;29;20683;-72
2023/02/08 16:58:44;;;;;;;4.77;2.33;;;5.40;99.50;;;;;;4938974;29;20212;-71
2023/02/08 17:01:13;;;;;;;3.40;1.63;;;5.30;99.70;;;;;;4939025;29;20239;-71
2023/02/08 17:03:40;;;;;;;4.93;1.97;;;5.20;99.50;;;;;;4938934;29;20307;-71
2023/02/08 17:06:17;;;;;;;5.03;2.13;;;5.00;99.90;;;;;;4938912;29;20205;-71
2023/02/08 17:08:43;;;;;;;4.07;1.77;;;4.80;99.90;;;;;;4938954;29;20219;-72
2023/02/08 17:11:10;;;;;;;3.50;1.73;;;4.70;99.90;;;;;;4938619;29;20235;-71
2023/02/08 17:13:37;;;;;;;5.60;2.20;;;4.60;99.90;;;;;;4938881;29;20294;-72
2023/02/08 17:16:05;;;;;;;4.23;1.40;;;4.50;99.90;;;;;;4938853;29;20216;-71
2023/02/08 17:18:32;;;;;;;2.93;1.63;;;4.40;99.90;;;;;;4938983;29;20219;-72
2023/02/08 17:21:00;;;;;;;3.37;1.43;;;4.30;99.90;;;;;;4938589;29;20243;-71
2023/02/08 17:23:27;;;;;;;3.27;1.40;;;4.20;99.90;;;;;;4938636;29;20252;-71
2023/02/08 17:25:54;;;;;;;10.97;2.20;;;4.10;99.90;;;;;;4937768;29;20213;-72
2023/02/08 17:28:21;;;;;;;8.03;2.60;;;4.10;99.90;;;;;;4937977;29;20208;-71
2023/02/08 17:30:49;;;;;;;5.87;2.40;;;4.00;99.90;;;;;;4938481;29;20247;-72
2023/02/08 17:33:20;;;;;;;9.90;3.63;;;3.80;99.90;;;;;;4938452;29;20223;-71
2023/02/08 17:35:48;;;;;;;11.73;3.40;;;3.70;99.90;;;;;;4938049;29;20703;-72
2023/02/08 17:38:15;;;;;;;7.50;3.07;;;3.60;99.90;;;;;;4937680;29;20565;-71
2023/02/08 17:40:43;;;;;;;7.87;3.10;;;3.50;99.90;;;;;;4937644;29;20228;-72
2023/02/08 17:43:11;;;;;;;9.47;3.70;;;3.30;99.90;;;;;;4938359;29;20714;-71
2023/02/08 17:45:39;;;;;;;9.33;3.30;;;3.20;99.90;;;;;;4937966;29;20213;-70
2023/02/08 17:48:07;;;;;;;5.47;3.03;;;3.10;99.90;;;;;;4938342;29;20209;-70
2023/02/08 17:50:36;;;;;;;7.73;3.23;;;3.10;99.90;;;;;;4937981;29;20703;-71
2023/02/08 17:53:03;;;;;;;12.00;4.33;;;3.10;99.90;;;;;;4938447;29;20213;-70
2023/02/08 17:55:30;;;;;;;10.70;3.90;;;3.00;99.90;;;;;;4937736;29;20217;-70
2023/02/08 17:57:57;;;;;;;14.57;4.37;;;2.90;99.90;;;;;;4937989;29;20678;-71
2023/02/08 18:00:24;;;;;;;18.07;4.63;;;2.80;99.90;;;;;;4937936;29;20235;-70
2023/02/08 18:02:52;;;;;;;14.30;3.77;;;2.70;99.90;;;;;;4937895;29;20213;-70
2023/02/08 18:05:21;;;;;;;11.20;4.97;;;2.60;99.90;;;;;;4937188;29;20248;-72
2023/02/08 18:07:50;;;;;;;11.70;4.63;;;2.60;99.90;;;;;;4937895;29;20205;-72
2023/02/08 18:10:17;;;;;;;13.93;4.03;;;2.60;99.90;;;;;;4936857;29;20720;-72
2023/02/08 18:12:44;;;;;;;9.87;3.87;;;2.60;99.90;;;;;;4936331;29;20209;-72
2023/02/08 18:15:12;;;;;;;6.87;3.90;;;2.40;99.90;;;;;;4936120;29;20213;-70
2023/02/08 18:17:40;;;;;;;12.83;4.93;;;2.20;99.90;;;;;;4936328;29;20212;-70
2023/02/08 18:20:08;;;;;;;11.20;4.47;;;2.10;99.90;;;;;;4935892;29;20243;-70
2023/02/08 18:22:35;;;;;;;11.80;5.40;;;2.00;99.90;;;;;;4936257;29;20676;-70
2023/02/08 18:25:04;;;;;;;12.73;5.27;;;2.00;99.90;;;;;;4935758;29;20292;-70
2023/02/08 18:27:31;;;;;;;15.60;4.43;;;2.00;99.90;;;;;;4937001;29;20568;-80
2023/02/08 18:29:59;;;;;;;14.97;5.60;;;2.00;99.90;;;;;;4937405;29;20233;-72
2023/02/08 18:32:26;;;;;;;16.73;4.63;;;1.90;99.90;;;;;;4937204;29;20672;-71
2023/02/08 18:34:54;;;;;;;15.33;5.70;;;1.90;99.90;;;;;;4937670;29;20219;-72
2023/02/08 18:37:22;;;;;;;9.37;4.70;;;1.90;99.90;;;;;;4937191;29;20216;-72
2023/02/08 18:39:50;;;;;;;13.37;6.17;;;1.90;99.90;;;;;;4936828;29;20228;-71
2023/02/08 18:42:18;;;;;;;12.27;6.53;;;1.90;99.90;;;;;;4937030;29;20209;-71
2023/02/08 18:44:45;;;;;;;13.37;5.57;;;1.80;99.90;;;;;;4932779;29;20233;-72
2023/02/08 18:47:12;;;;;;;14.43;6.23;;;1.80;99.90;;;;;;4935241;29;20231;-69
2023/02/08 18:49:40;;;;;;;13.80;6.83;;;1.80;99.90;;;;;;4937021;29;20204;-70
2023/02/08 18:52:08;;;;;;;14.60;6.00;;;1.70;99.90;;;;;;4936327;29;20215;-70
2023/02/08 18:54:35;;;;;;;13.77;6.20;;;1.70;99.90;;;;;;4935762;29;20213;-70
2023/02/08 18:57:01;;;;;;;18.53;6.23;;;1.90;99.90;;;;;;4936321;29;20204;-70
2023/02/08 18:59:29;;;;;;;19.43;6.83;;;1.90;99.90;;;;;;4936698;29;20219;-69
2023/02/08 19:01:56;;;;;;;19.23;7.53;;;1.80;99.90;;;;;;4936753;29;20660;-70
2023/02/08 19:04:23;;;;;;;14.47;6.67;;;1.80;99.90;;;;;;4936624;29;20623;-69
2023/02/08 19:06:50;;;;;;;19.17;6.53;;;1.80;99.90;;;;;;4937083;29;20219;-70
2023/02/08 19:09:17;;;;;;;20.07;7.50;;;1.70;99.90;;;;;;4936862;29;20212;-70
2023/02/08 19:11:44;;;;;;;15.60;6.83;;;1.60;99.90;;;;;;4936724;29;20232;-69
2023/02/08 19:14:13;;;;;;;13.40;6.73;;;1.50;99.90;;;;;;4936520;29;20216;-69
2023/02/08 19:16:42;;;;;;;11.83;5.53;;;1.40;99.90;;;;;;4936682;29;20209;-70
2023/02/08 19:19:09;;;;;;;12.97;6.37;;;1.40;99.90;;;;;;4936945;29;20204;-69
2023/02/08 19:21:36;;;;;;;18.00;5.93;;;1.40;99.90;;;;;;4936521;29;20236;-70
2023/02/08 19:24:04;;;;;;;19.30;7.47;;;1.30;99.90;;;;;;4936385;29;20247;-69
2023/02/08 19:26:34;;;;;;;17.93;6.37;;;1.30;99.90;;;;;;4936400;29;20244;-69
2023/02/08 19:29:05;;;;;;;12.73;6.57;;;1.30;99.90;;;;;;4936710;29;20216;-69
2023/02/08 19:31:32;;;;;;;17.33;7.00;;;1.20;99.90;;;;;;4936315;29;20236;-69
2023/02/08 19:34:02;;;;;;;15.20;6.27;;;1.20;99.90;;;;;;4936381;29;20208;-69
2023/02/08 19:36:31;;;;;;;13.60;6.37;;;1.20;99.90;;;;;;4936122;29;20560;-69
2023/02/08 19:38:59;;;;;;;15.03;6.30;;;1.20;99.90;;;;;;4936437;29;20217;-69
2023/02/08 19:41:27;;;;;;;18.10;6.57;;;1.20;99.90;;;;;;4936347;29;20315;-70
2023/02/08 19:43:54;;;;;;;14.07;6.67;;;1.20;99.90;;;;;;4936174;29;20244;-70
2023/02/08 19:46:23;;;;;;;12.93;6.77;;;1.10;99.90;;;;;;4936187;29;20225;-70
2023/02/08 19:48:50;;;;;;;12.40;6.53;;;1.10;99.90;;;;;;4936110;29;20205;-70
2023/02/08 19:51:19;;;;;;;16.70;6.87;;;1.10;99.90;;;;;;4935856;29;20225;-70
2023/02/08 19:53:46;;;;;;;17.37;6.97;;;1.10;99.90;;;;;;4935895;29;20209;-70
2023/02/08 19:56:14;;;;;;;22.83;6.83;;;1.00;99.90;;;;;;4936109;29;20212;-70
2023/02/08 19:58:42;;;;;;;13.13;6.63;;;1.00;99.90;;;;;;4936223;29;20208;-70
2023/02/08 20:01:11;;;;;;;14.53;6.40;;;0.90;99.90;;;;;;4936082;29;20232;-70
2023/02/08 20:03:37;;;;;;;18.13;7.87;;;0.90;99.90;;;;;;4935981;29;20213;-70
2023/02/08 20:06:04;;;;;;;12.23;6.20;;;0.90;99.90;;;;;;4935858;29;20414;-71
2023/02/08 20:08:33;;;;;;;14.40;6.53;;;0.80;99.90;;;;;;4935396;29;20216;-70
2023/02/08 20:11:00;;;;;;;13.10;6.33;;;0.60;99.90;;;;;;4935509;29;20230;-70
2023/02/08 20:13:26;;;;;;;14.10;6.53;;;0.60;99.90;;;;;;4935382;29;20690;-70
2023/02/08 20:15:58;;;;;;;14.30;6.40;;;0.60;99.90;;;;;;4935475;29;20217;-70
2023/02/08 20:18:25;;;;;;;14.00;6.33;;;0.70;99.90;;;;;;4935771;29;20247;-70
2023/02/08 20:21:00;;;;;;;14.37;6.30;;;0.60;99.90;;;;;;4935555;29;20232;-70
2023/02/08 20:23:27;;;;;;;12.70;6.63;;;0.60;99.90;;;;;;4935493;29;20207;-70
2023/02/08 20:26:05;;;;;;;16.77;6.50;;;0.50;99.90;;;;;;4935328;29;20237;-70
2023/02/08 20:28:31;;;;;;;16.53;6.27;;;0.60;99.90;;;;;;4935519;29;20208;-70
2023/02/08 20:30:58;;;;;;;12.93;6.97;;;0.50;99.90;;;;;;4935501;29;20229;-70
2023/02/08 20:33:25;;;;;;;19.30;7.17;;;0.50;99.90;;;;;;4935551;29;20205;-70
2023/02/08 20:35:52;;;;;;;15.63;7.87;;;0.40;99.90;;;;;;4935896;29;20213;-70
2023/02/08 20:38:19;;;;;;;22.33;8.07;;;0.40;99.90;;;;;;4935543;29;20213;-70
2023/02/08 20:40:45;;;;;;;20.80;8.30;;;0.40;99.90;;;;;;4934686;29;20232;-70
2023/02/08 20:43:13;;;;;;;23.67;8.27;;;0.40;99.90;;;;;;4934670;29;20213;-71
2023/02/08 20:45:41;;;;;;;18.37;9.20;;;0.30;99.90;;;;;;4934419;29;20236;-70
2023/02/08 20:48:07;;;;;;;23.57;9.97;;;0.30;99.90;;;;;;4934824;29;20623;-70
2023/02/08 20:50:34;;;;;;;19.83;8.67;;;0.30;99.90;;;;;;4935129;29;20584;-70
2023/02/08 20:53:01;;;;;;;34.73;9.97;;;0.30;99.90;;;;;;4935430;29;20242;-70
2023/02/08 20:55:28;;;;;;;19.50;10.07;;;0.20;99.90;;;;;;4935298;29;20235;-70
2023/02/08 20:57:55;;;;;;;22.03;10.37;;;0.20;99.90;;;;;;4935473;29;20240;-70
2023/02/08 21:00:23;;;;;;;23.33;10.23;;;0.30;99.90;;;;;;4935320;29;20229;-70
2023/02/08 21:02:50;;;;;;;26.50;11.77;;;0.30;99.90;;;;;;4935356;29;20209;-70
2023/02/08 21:05:17;;;;;;;28.20;10.67;;;0.30;99.90;;;;;;4935274;29;20236;-70
2023/02/08 21:07:44;;;;;;;22.93;10.83;;;0.30;99.90;;;;;;4935419;29;20212;-70
2023/02/08 21:10:11;;;;;;;19.43;9.67;;;0.30;99.90;;;;;;4935225;29;20233;-70
2023/02/08 21:12:37;;;;;;;21.80;9.97;;;0.20;99.90;;;;;;4935290;29;20468;-71
2023/02/08 21:15:05;;;;;;;24.90;10.73;;;0.20;99.90;;;;;;4935419;29;20209;-70
2023/02/08 21:17:33;;;;;;;22.43;11.53;;;0.20;99.90;;;;;;4938237;29;20212;-70
2023/02/08 21:20:00;;;;;;;19.60;9.17;;;0.20;99.90;;;;;;4938687;29;20319;-70
2023/02/08 21:22:26;;;;;;;22.67;9.43;;;0.10;99.90;;;;;;4938808;29;20643;-70
2023/02/08 21:24:53;;;;;;;22.93;9.70;;;0.10;99.90;;;;;;4938613;29;20328;-70
2023/02/08 21:27:23;;;;;;;20.87;9.80;;;0.10;99.90;;;;;;4938665;29;20209;-71
2023/02/08 21:29:50;;;;;;;334.07;262.03;;;0.10;99.90;;;;;;4938871;29;20319;-70
2023/02/08 21:32:17;;;;;;;132.97;96.07;;;0.00;99.90;;;;;;4938836;29;20213;-70
2023/02/08 21:34:45;;;;;;;83.30;55.50;;;0.00;99.90;;;;;;4938677;29;20209;-71
2023/02/08 21:37:12;;;;;;;53.40;35.17;;;-0.10;99.90;;;;;;4938583;29;20234;-70
2023/02/08 21:39:39;;;;;;;37.63;22.60;;;-0.10;99.90;;;;;;4938310;29;20209;-70
2023/02/08 21:42:06;;;;;;;27.83;15.87;;;-0.10;99.90;;;;;;4938322;29;20212;-70
2023/02/08 21:44:34;;;;;;;21.87;13.60;;;-0.10;99.90;;;;;;4938128;29;20224;-70
2023/02/08 21:47:01;;;;;;;26.40;15.33;;;-0.10;99.90;;;;;;4938320;29;20216;-70
2023/02/08 21:54:58;;;;;;;16.10;9.07;;;-0.20;99.90;;;;;;4938264;29;20208;-70
2023/02/08 21:57:27;;;;;;;15.70;8.40;;;-0.20;99.90;;;;;;4938514;29;20295;-70
2023/02/08 21:59:56;;;;;;;14.97;8.40;;;-0.30;99.90;;;;;;4938210;29;20233;-70
2023/02/08 22:02:26;;;;;;;16.33;7.73;;;-0.30;99.90;;;;;;4937979;29;20223;-71
2023/02/08 22:04:54;;;;;;;14.60;8.13;;;-0.30;99.90;;;;;;4937784;29;20233;-70
2023/02/08 22:07:23;;;;;;;16.00;7.53;;;-0.30;99.90;;;;;;4938308;29;20209;-71
